Makawao, HI

6:49 PM HST on December 24, 2014 (GMT -1000)
Up Country Maui | Change Station
CLOSE
Current Station
Personal Weather Station
Location: Makawao, HI
Elevation: 1562 ft
Nearby Weather Stations

Elev 1562 ft 20.86 °N, 156.32 °W | Updated 9 minutes ago

Scattered Clouds
Scattered Clouds
65.2 °F
Feels Like 65.2 °F
N
0.0
Wind Variable Wind from WNW
Gusts 0.0 mph

Today
High -- | Low -- °F
--% Chance of Precip.
Yesterday
High -- | Low -- °F
Precip. -- in
6:58 AM 5:51 PM
Waxing Crescent, 13% visible
Pressure 29.79 in
Visibility 10.0 miles
Clouds Few 2500 ft
Scattered Clouds 4000 ft
Dew Point 63 °F
Humidity 92%
Rainfall 0.05 in
Snow Depth Not available.
UV 0.0 out of 12
Pollen Not available.
Air Quality Not available.
Flu Activity Not available.
METAR PHOG 250354Z 34005KT 10SM FEW025 SCT040 23/18 A2977 RMK AO2 SLP086 T02330183 $

More Conditions Fewer Conditions

Pressure 29.79 in
Visibility 10.0 miles
Clouds Few 2500 ft
Scattered Clouds 4000 ft
Dew Point 63 °F
Humidity 92%
Rainfall 0.05 in
Snow Depth Not available.
UV 0.0 out of 12
Pollen Not available.
Air Quality Not available.
Flu Activity Not available.
METAR PHOG 250354Z 34005KT 10SM FEW025 SCT040 23/18 A2977 RMK AO2 SLP086 T02330183 $

More Conditions Fewer Conditions

10-Day Weather Forecast

Almanac

Astronomy

Dec. 24, 2014 Rise Set
Actual Time
Civil Twilight
Nautical Twilight
Astronomical Twilight
Moon
Length of Visible Light
Length of Day
Tomorrow will be .
, % of the Moon is Illuminated

Today's Extremes

State Highs State Lows

Community

WunderPhotos

Upload Photos

1,780,238 photos uploaded!

WunderBlogs® & News

Nearby

Air Quality

  Air Quality AQ Index Pollutant
Not available.

Snow Depth

Station Depth Elevation

Earthquake Activity

City Distance Mag. Time & Date
Minimum magnitude displayed is 2.5.

Coastal Water Temperatures

Place Temperature

Nearby Weather Stations